Un Akdeniz — TCTD2 — position and weather

sailwx.info

Track history (hours):
 
Tides and Currents Weather Stations Pressure Air Temp Water Temp Dewpoint Dewpoint Depression Visibility Wind Speed Wind Dir Waves Ship Positions

Un Akdeniz

Last reported at 2017-Apr-29 12:48 UTC. Time now 2017-Apr-29 23:10 UTC.
Position N 39°28' E 013°36'.

Length 222 m; draft 6.4 m.

Type: Ship (hazmat cat A). MMSI: 271002572.

Date/timePositionNaut miles runAvg speedWind from/ knotsBaromVisibWave heightAir tempDewpointWater temp
2017-Apr-29 12:48N 39°28' E 013°36'620.2
2017-Apr-29 12:31N 39°24' E 013°43'5419.8
2017-Apr-29 09:46N 38°56' E 014°42'519.9
2017-Apr-29 09:30N 38°53' E 014°48'1019.8
2017-Apr-29 09:00N 38°48' E 014°59'1019.8
2017-Apr-29 08:30N 38°43' E 015°10'1019.7
2017-Apr-29 08:00N 38°36' E 015°19'1020.0
2017-Apr-29 07:31N 38°29' E 015°28'1020.5
2017-Apr-29 07:01N 38°22' E 015°37'713.7
2017-Apr-29 06:31N 38°16' E 015°41'815.9
2017-Apr-29 06:01N 38°09' E 015°37'1019.3
2017-Apr-29 05:30N 37°59' E 015°37'1019.5
2017-Apr-29 04:59N 37°53' E 015°48'15420.4
2017-Apr-28 21:28N 37°11' E 018°54'5820.3
2017-Apr-28 18:37N 36°55' E 020°04'15520.0
2017-Apr-28 10:51N 36°26' E 023°14'720.4
2017-Apr-28 10:30N 36°32' E 023°19'1820.4
2017-Apr-28 09:37N 36°47' E 023°31'220.3
2017-Apr-28 09:30N 36°49' E 023°32'1620.5
2017-Apr-28 08:43N 37°03' E 023°43'620.6
2017-Apr-28 08:26N 37°07' E 023°47'920.7
2017-Apr-28 07:58N 37°16' E 023°53'1020.9
2017-Apr-28 07:30N 37°24' E 023°60'1020.3
2017-Apr-28 07:00N 37°33' E 024°05'1420.3
2017-Apr-28 06:20N 37°44' E 024°16'1020.6
2017-Apr-28 05:52N 37°50' E 024°25'721.0
2017-Apr-28 05:30N 37°55' E 024°32'11620.4
2017-Apr-27 23:50N 39°37' E 025°41'819.7
2017-Apr-27 23:25N 39°44' E 025°47'820.5
2017-Apr-27 23:00N 39°52' E 025°52'1219.5
2017-Apr-27 22:23N 40°01' E 026°02'918.0
2017-Apr-27 21:54N 40°02' E 026°14'11513.7
2017-Apr-27 13:29N 40°52' E 028°31'1019.9
2017-Apr-27 13:00N 40°51' E 028°44'1020.2
2017-Apr-27 12:30N 40°49' E 028°57'919.4
2017-Apr-27 12:00N 40°50' E 029°09'510.6
2017-Apr-27 11:30N 40°51' E 029°16'0 0.0
2017-Apr-27 11:00N 40°51' E 029°16'0 0.0
2017-Apr-27 10:30N 40°51' E 029°16'0 0.0
2017-Apr-27 09:58N 40°51' E 029°16'0 0.0
2017-Apr-27 09:30N 40°51' E 029°16'0 0.0
2017-Apr-27 09:00N 40°51' E 029°16'0 0.0
2017-Apr-27 08:29N 40°51' E 029°16'0 0.0
2017-Apr-27 08:00N 40°51' E 029°16'0 0.0
2017-Apr-27 07:30N 40°51' E 029°16'0 0.0
2017-Apr-27 07:00N 40°51' E 029°16'0 0.0
2017-Apr-27 06:30N 40°51' E 029°16'0 0.0
2017-Apr-27 06:00N 40°51' E 029°16'0 0.0
2017-Apr-27 05:30N 40°51' E 029°16'0 0.0
2017-Apr-27 04:58N 40°51' E 029°16'0 0.0
2017-Apr-27 04:30N 40°51' E 029°16'0 0.0
2017-Apr-27 04:00N 40°51' E 029°16'0 0.0
2017-Apr-27 03:30N 40°51' E 029°16'0 0.0
2017-Apr-27 02:59N 40°51' E 029°16'0 0.0
2017-Apr-27 02:29N 40°51' E 029°16'0 0.0
2017-Apr-27 01:59N 40°51' E 029°16'0 0.0
2017-Apr-27 01:27N 40°51' E 029°16'0 0.0
2017-Apr-27 00:59N 40°51' E 029°16'0 0.0
2017-Apr-27 00:30N 40°51' E 029°16'0 0.0
2017-Apr-27 00:00N 40°51' E 029°16'0 0.0
2017-Apr-26 23:30N 40°51' E 029°16'0 0.0
2017-Apr-26 22:59N 40°51' E 029°16'0 0.0
2017-Apr-26 22:29N 40°51' E 029°16'0 0.0
2017-Apr-26 22:00N 40°51' E 029°16'0 0.2
2017-Apr-26 21:30N 40°51' E 029°16'2 3.9
2017-Apr-26 20:59N 40°51' E 029°14'611.6
2017-Apr-26 20:30N 40°48' E 029°07'816.6
2017-Apr-26 20:00N 40°49' E 028°56'1019.6
2017-Apr-26 19:28N 40°49' E 028°42'14216.8
2017-Apr-26 11:02N 39°51' E 025°53'8919.1
2017-Apr-26 06:22N 38°31' E 025°00'1320.2
2017-Apr-26 05:43N 38°20' E 024°52'420.2
2017-Apr-26 05:29N 38°16' E 024°50'2120.0
2017-Apr-26 04:26N 37°57' E 024°38'819.8
2017-Apr-26 04:00N 37°49' E 024°34'1020.0
2017-Apr-26 03:30N 37°40' E 024°28'1320.0
2017-Apr-26 02:52N 37°29' E 024°20'720.2
2017-Apr-26 02:30N 37°23' E 024°14'1020.2
2017-Apr-26 02:00N 37°16' E 024°06'1020.2
2017-Apr-26 01:30N 37°07' E 023°58'1019.9
2017-Apr-26 01:00N 36°60' E 023°51'1119.9
2017-Apr-26 00:27N 36°51' E 023°43'1020.2
2017-Apr-25 23:57N 36°43' E 023°34'36419.3
2017-Apr-25 05:08N 37°49' E 016°05'620.2
2017-Apr-25 04:50N 37°50' E 015°58'719.9
2017-Apr-25 04:29N 37°52' E 015°49'919.2
2017-Apr-25 04:01N 37°56' E 015°39'1019.0
2017-Apr-25 03:30N 38°05' E 015°35'714.5
2017-Apr-25 03:00N 38°12' E 015°36'714.2
2017-Apr-25 02:30N 38°18' E 015°41'917.3
2017-Apr-25 02:00N 38°24' E 015°33'1020.0
2017-Apr-25 01:30N 38°31' E 015°23'1020.3
2017-Apr-25 01:00N 38°38' E 015°14'1020.2
2017-Apr-25 00:30N 38°44' E 015°04'1020.6
2017-Apr-25 00:00N 38°50' E 014°52'1020.4
2017-Apr-24 23:30N 38°55' E 014°41'6620.2
2017-Apr-24 20:13N 39°29' E 013°28'420.1
2017-Apr-24 20:00N 39°31' E 013°23'39719.4
2017-Apr-23 23:32N 43°05' E 005°58'014.1
2017-Apr-23 23:30N 43°05' E 005°57'3 6.0
2017-Apr-23 23:01N 43°06' E 005°54'0 0.0
2017-Apr-23 22:30N 43°06' E 005°54'0 0.0
2017-Apr-23 21:58N 43°06' E 005°54'0 0.0
2017-Apr-23 21:30N 43°06' E 005°54'0 0.0
2017-Apr-23 21:00N 43°06' E 005°54'0 0.0
2017-Apr-23 20:30N 43°06' E 005°54'0 0.0
2017-Apr-23 20:00N 43°06' E 005°54'0 0.0
2017-Apr-23 19:30N 43°06' E 005°54'0 0.0
2017-Apr-23 19:00N 43°06' E 005°54'0 0.0
2017-Apr-23 18:30N 43°06' E 005°54'0 0.0
2017-Apr-23 18:00N 43°06' E 005°54'0 0.0
2017-Apr-23 17:30N 43°06' E 005°54'0 0.0
2017-Apr-23 17:00N 43°06' E 005°54'0 0.0
2017-Apr-23 16:30N 43°06' E 005°54'0 0.0
2017-Apr-23 16:00N 43°06' E 005°54'0 0.0
2017-Apr-23 15:30N 43°06' E 005°54'0 0.0
2017-Apr-23 15:00N 43°06' E 005°54'0 0.0
2017-Apr-23 14:30N 43°06' E 005°54'0 0.0
2017-Apr-23 13:30N 43°06' E 005°54'0 0.0
2017-Apr-23 13:00N 43°06' E 005°54'0 0.0
2017-Apr-23 12:30N 43°06' E 005°54'0 0.0
2017-Apr-23 12:00N 43°06' E 005°54'0 0.0
2017-Apr-23 11:30N 43°06' E 005°54'0 0.0
2017-Apr-23 11:00N 43°06' E 005°54'0 0.0
2017-Apr-23 10:30N 43°06' E 005°54'0 0.0
2017-Apr-23 10:00N 43°06' E 005°54'0 0.0
2017-Apr-23 09:30N 43°06' E 005°54'0 0.0
2017-Apr-23 09:00N 43°06' E 005°54'0 0.0
2017-Apr-23 08:30N 43°06' E 005°54'1 1.3
2017-Apr-23 08:00N 43°06' E 005°54'47319.6
2017-Apr-22 07:50N 38°54' E 014°45'720.0
2017-Apr-22 07:29N 38°51' E 014°53'919.8
2017-Apr-22 07:00N 38°45' E 015°03'1019.8
2017-Apr-22 06:30N 38°40' E 015°14'1019.8
2017-Apr-22 06:01N 38°33' E 015°23'1020.0
2017-Apr-22 05:30N 38°26' E 015°32'1019.8
2017-Apr-22 05:01N 38°19' E 015°41'612.4
2017-Apr-22 04:30N 38°14' E 015°37'917.4
2017-Apr-22 04:00N 38°05' E 015°36'918.9
2017-Apr-22 03:30N 37°56' E 015°40'1020.2
2017-Apr-22 03:00N 37°52' E 015°52'38917.8
2017-Apr-21 05:09N 37°28' E 024°03'920.7
2017-Apr-21 04:42N 37°35' E 024°09'620.9
2017-Apr-21 04:24N 37°41' E 024°14'820.7
2017-Apr-21 04:00N 37°46' E 024°21'1020.7
2017-Apr-21 03:31N 37°53' E 024°30'26417.8
2017-Apr-20 12:39N 40°51' E 028°43'319.3
2017-Apr-20 12:30N 40°51' E 028°46'1019.4
2017-Apr-20 12:00N 40°49' E 028°59'918.7
2017-Apr-20 11:30N 40°50' E 029°11'4 7.7
2017-Apr-20 11:00N 40°51' E 029°16'0 0.0
2017-Apr-20 10:30N 40°51' E 029°16'0 0.0
2017-Apr-20 10:00N 40°51' E 029°16'0 0.0
2017-Apr-20 09:29N 40°51' E 029°16'0 0.0
2017-Apr-20 09:00N 40°51' E 029°16'0 0.0
2017-Apr-20 08:28N 40°51' E 029°16'0 0.0
2017-Apr-20 08:00N 40°51' E 029°16'0 0.0
2017-Apr-20 07:30N 40°51' E 029°16'0 0.0
2017-Apr-20 07:00N 40°51' E 029°16'0 0.0
2017-Apr-20 06:30N 40°51' E 029°16'0 0.0
2017-Apr-20 05:58N 40°51' E 029°16'0 0.0
2017-Apr-20 05:29N 40°51' E 029°16'0 0.0
2017-Apr-20 05:00N 40°51' E 029°16'0 0.0
2017-Apr-20 04:29N 40°51' E 029°16'0 0.0
2017-Apr-20 04:00N 40°51' E 029°16'0 0.0
2017-Apr-20 03:30N 40°51' E 029°16'0 0.0
2017-Apr-20 03:00N 40°51' E 029°16'0 0.0
2017-Apr-20 02:29N 40°51' E 029°16'0 0.0
2017-Apr-20 01:59N 40°51' E 029°16'0 0.0
2017-Apr-20 01:30N 40°51' E 029°16'0 0.0
2017-Apr-20 01:00N 40°51' E 029°16'0 0.0
2017-Apr-20 00:30N 40°51' E 029°16'0 0.0
2017-Apr-20 00:00N 40°51' E 029°16'0 0.0
2017-Apr-19 23:30N 40°51' E 029°16'0 0.0
2017-Apr-19 22:59N 40°51' E 029°16'0 0.0
2017-Apr-19 22:30N 40°51' E 029°16'0 0.0
2017-Apr-19 21:59N 40°51' E 029°16'0 0.0
2017-Apr-19 21:30N 40°51' E 029°16'0 0.0
2017-Apr-19 21:00N 40°51' E 029°16'2 3.9
2017-Apr-19 20:31N 40°51' E 029°14'918.4
2017-Apr-19 20:00N 40°48' E 029°02'919.1
2017-Apr-19 19:31N 40°49' E 028°50'  
Track history (hours):
 
Tides and Currents Weather Stations Pressure Air Temp Water Temp Dewpoint Dewpoint Depression Visibility Wind Speed Wind Dir Waves Ship Positions

Un Akdeniz

Last reported at 2017-Apr-29 12:48 UTC. Time now 2017-Apr-29 23:10 UTC.
Position N 39°28' E 013°36'.

Length 222 m; draft 6.4 m.

Type: Ship (hazmat cat A). MMSI: 271002572.

Date/timePositionNaut miles runAvg speedWind from/ knotsBaromVisibWave heightAir tempDewpointWater temp
2017-Apr-29 12:48N 39°28' E 013°36'620.2
2017-Apr-29 12:31N 39°24' E 013°43'5419.8
2017-Apr-29 09:46N 38°56' E 014°42'519.9
2017-Apr-29 09:30N 38°53' E 014°48'1019.8
2017-Apr-29 09:00N 38°48' E 014°59'1019.8
2017-Apr-29 08:30N 38°43' E 015°10'1019.7
2017-Apr-29 08:00N 38°36' E 015°19'1020.0
2017-Apr-29 07:31N 38°29' E 015°28'1020.5
2017-Apr-29 07:01N 38°22' E 015°37'713.7
2017-Apr-29 06:31N 38°16' E 015°41'815.9
2017-Apr-29 06:01N 38°09' E 015°37'1019.3
2017-Apr-29 05:30N 37°59' E 015°37'1019.5
2017-Apr-29 04:59N 37°53' E 015°48'15420.4
2017-Apr-28 21:28N 37°11' E 018°54'5820.3
2017-Apr-28 18:37N 36°55' E 020°04'15520.0
2017-Apr-28 10:51N 36°26' E 023°14'720.4
2017-Apr-28 10:30N 36°32' E 023°19'1820.4
2017-Apr-28 09:37N 36°47' E 023°31'220.3
2017-Apr-28 09:30N 36°49' E 023°32'1620.5
2017-Apr-28 08:43N 37°03' E 023°43'620.6
2017-Apr-28 08:26N 37°07' E 023°47'920.7
2017-Apr-28 07:58N 37°16' E 023°53'1020.9
2017-Apr-28 07:30N 37°24' E 023°60'1020.3
2017-Apr-28 07:00N 37°33' E 024°05'1420.3
2017-Apr-28 06:20N 37°44' E 024°16'1020.6
2017-Apr-28 05:52N 37°50' E 024°25'721.0
2017-Apr-28 05:30N 37°55' E 024°32'11620.4
2017-Apr-27 23:50N 39°37' E 025°41'819.7
2017-Apr-27 23:25N 39°44' E 025°47'820.5
2017-Apr-27 23:00N 39°52' E 025°52'1219.5
2017-Apr-27 22:23N 40°01' E 026°02'918.0
2017-Apr-27 21:54N 40°02' E 026°14'11513.7
2017-Apr-27 13:29N 40°52' E 028°31'1019.9
2017-Apr-27 13:00N 40°51' E 028°44'1020.2
2017-Apr-27 12:30N 40°49' E 028°57'919.4
2017-Apr-27 12:00N 40°50' E 029°09'510.6
2017-Apr-27 11:30N 40°51' E 029°16'0 0.0
2017-Apr-27 11:00N 40°51' E 029°16'0 0.0
2017-Apr-27 10:30N 40°51' E 029°16'0 0.0
2017-Apr-27 09:58N 40°51' E 029°16'0 0.0
2017-Apr-27 09:30N 40°51' E 029°16'0 0.0
2017-Apr-27 09:00N 40°51' E 029°16'0 0.0
2017-Apr-27 08:29N 40°51' E 029°16'0 0.0
2017-Apr-27 08:00N 40°51' E 029°16'0 0.0
2017-Apr-27 07:30N 40°51' E 029°16'0 0.0
2017-Apr-27 07:00N 40°51' E 029°16'0 0.0
2017-Apr-27 06:30N 40°51' E 029°16'0 0.0
2017-Apr-27 06:00N 40°51' E 029°16'0 0.0
2017-Apr-27 05:30N 40°51' E 029°16'0 0.0
2017-Apr-27 04:58N 40°51' E 029°16'0 0.0
2017-Apr-27 04:30N 40°51' E 029°16'0 0.0
2017-Apr-27 04:00N 40°51' E 029°16'0 0.0
2017-Apr-27 03:30N 40°51' E 029°16'0 0.0
2017-Apr-27 02:59N 40°51' E 029°16'0 0.0
2017-Apr-27 02:29N 40°51' E 029°16'0 0.0
2017-Apr-27 01:59N 40°51' E 029°16'0 0.0
2017-Apr-27 01:27N 40°51' E 029°16'0 0.0
2017-Apr-27 00:59N 40°51' E 029°16'0 0.0
2017-Apr-27 00:30N 40°51' E 029°16'0 0.0
2017-Apr-27 00:00N 40°51' E 029°16'0 0.0
2017-Apr-26 23:30N 40°51' E 029°16'0 0.0
2017-Apr-26 22:59N 40°51' E 029°16'0 0.0
2017-Apr-26 22:29N 40°51' E 029°16'0 0.0
2017-Apr-26 22:00N 40°51' E 029°16'0 0.2
2017-Apr-26 21:30N 40°51' E 029°16'2 3.9
2017-Apr-26 20:59N 40°51' E 029°14'611.6
2017-Apr-26 20:30N 40°48' E 029°07'816.6
2017-Apr-26 20:00N 40°49' E 028°56'1019.6
2017-Apr-26 19:28N 40°49' E 028°42'14216.8
2017-Apr-26 11:02N 39°51' E 025°53'8919.1
2017-Apr-26 06:22N 38°31' E 025°00'1320.2
2017-Apr-26 05:43N 38°20' E 024°52'420.2
2017-Apr-26 05:29N 38°16' E 024°50'2120.0
2017-Apr-26 04:26N 37°57' E 024°38'819.8
2017-Apr-26 04:00N 37°49' E 024°34'1020.0
2017-Apr-26 03:30N 37°40' E 024°28'1320.0
2017-Apr-26 02:52N 37°29' E 024°20'720.2
2017-Apr-26 02:30N 37°23' E 024°14'1020.2
2017-Apr-26 02:00N 37°16' E 024°06'1020.2
2017-Apr-26 01:30N 37°07' E 023°58'1019.9
2017-Apr-26 01:00N 36°60' E 023°51'1119.9
2017-Apr-26 00:27N 36°51' E 023°43'1020.2
2017-Apr-25 23:57N 36°43' E 023°34'36419.3
2017-Apr-25 05:08N 37°49' E 016°05'620.2
2017-Apr-25 04:50N 37°50' E 015°58'719.9
2017-Apr-25 04:29N 37°52' E 015°49'919.2
2017-Apr-25 04:01N 37°56' E 015°39'1019.0
2017-Apr-25 03:30N 38°05' E 015°35'714.5
2017-Apr-25 03:00N 38°12' E 015°36'714.2
2017-Apr-25 02:30N 38°18' E 015°41'917.3
2017-Apr-25 02:00N 38°24' E 015°33'1020.0
2017-Apr-25 01:30N 38°31' E 015°23'1020.3
2017-Apr-25 01:00N 38°38' E 015°14'1020.2
2017-Apr-25 00:30N 38°44' E 015°04'1020.6
2017-Apr-25 00:00N 38°50' E 014°52'1020.4
2017-Apr-24 23:30N 38°55' E 014°41'6620.2
2017-Apr-24 20:13N 39°29' E 013°28'420.1
2017-Apr-24 20:00N 39°31' E 013°23'39719.4
2017-Apr-23 23:32N 43°05' E 005°58'014.1
2017-Apr-23 23:30N 43°05' E 005°57'3 6.0
2017-Apr-23 23:01N 43°06' E 005°54'0 0.0
2017-Apr-23 22:30N 43°06' E 005°54'0 0.0
2017-Apr-23 21:58N 43°06' E 005°54'0 0.0
2017-Apr-23 21:30N 43°06' E 005°54'0 0.0
2017-Apr-23 21:00N 43°06' E 005°54'0 0.0
2017-Apr-23 20:30N 43°06' E 005°54'0 0.0
2017-Apr-23 20:00N 43°06' E 005°54'0 0.0
2017-Apr-23 19:30N 43°06' E 005°54'0 0.0
2017-Apr-23 19:00N 43°06' E 005°54'0 0.0
2017-Apr-23 18:30N 43°06' E 005°54'0 0.0
2017-Apr-23 18:00N 43°06' E 005°54'0 0.0
2017-Apr-23 17:30N 43°06' E 005°54'0 0.0
2017-Apr-23 17:00N 43°06' E 005°54'0 0.0
2017-Apr-23 16:30N 43°06' E 005°54'0 0.0
2017-Apr-23 16:00N 43°06' E 005°54'0 0.0
2017-Apr-23 15:30N 43°06' E 005°54'0 0.0
2017-Apr-23 15:00N 43°06' E 005°54'0 0.0
2017-Apr-23 14:30N 43°06' E 005°54'0 0.0
2017-Apr-23 13:30N 43°06' E 005°54'0 0.0
2017-Apr-23 13:00N 43°06' E 005°54'0 0.0
2017-Apr-23 12:30N 43°06' E 005°54'0 0.0
2017-Apr-23 12:00N 43°06' E 005°54'0 0.0
2017-Apr-23 11:30N 43°06' E 005°54'0 0.0
2017-Apr-23 11:00N 43°06' E 005°54'0 0.0
2017-Apr-23 10:30N 43°06' E 005°54'0 0.0
2017-Apr-23 10:00N 43°06' E 005°54'0 0.0
2017-Apr-23 09:30N 43°06' E 005°54'0 0.0
2017-Apr-23 09:00N 43°06' E 005°54'0 0.0
2017-Apr-23 08:30N 43°06' E 005°54'1 1.3
2017-Apr-23 08:00N 43°06' E 005°54'47319.6
2017-Apr-22 07:50N 38°54' E 014°45'720.0
2017-Apr-22 07:29N 38°51' E 014°53'919.8
2017-Apr-22 07:00N 38°45' E 015°03'1019.8
2017-Apr-22 06:30N 38°40' E 015°14'1019.8
2017-Apr-22 06:01N 38°33' E 015°23'1020.0
2017-Apr-22 05:30N 38°26' E 015°32'1019.8
2017-Apr-22 05:01N 38°19' E 015°41'612.4
2017-Apr-22 04:30N 38°14' E 015°37'917.4
2017-Apr-22 04:00N 38°05' E 015°36'918.9
2017-Apr-22 03:30N 37°56' E 015°40'1020.2
2017-Apr-22 03:00N 37°52' E 015°52'38917.8
2017-Apr-21 05:09N 37°28' E 024°03'920.7
2017-Apr-21 04:42N 37°35' E 024°09'620.9
2017-Apr-21 04:24N 37°41' E 024°14'820.7
2017-Apr-21 04:00N 37°46' E 024°21'1020.7
2017-Apr-21 03:31N 37°53' E 024°30'26417.8
2017-Apr-20 12:39N 40°51' E 028°43'319.3
2017-Apr-20 12:30N 40°51' E 028°46'1019.4
2017-Apr-20 12:00N 40°49' E 028°59'918.7
2017-Apr-20 11:30N 40°50' E 029°11'4 7.7
2017-Apr-20 11:00N 40°51' E 029°16'0 0.0
2017-Apr-20 10:30N 40°51' E 029°16'0 0.0
2017-Apr-20 10:00N 40°51' E 029°16'0 0.0
2017-Apr-20 09:29N 40°51' E 029°16'0 0.0
2017-Apr-20 09:00N 40°51' E 029°16'0 0.0
2017-Apr-20 08:28N 40°51' E 029°16'0 0.0
2017-Apr-20 08:00N 40°51' E 029°16'0 0.0
2017-Apr-20 07:30N 40°51' E 029°16'0 0.0
2017-Apr-20 07:00N 40°51' E 029°16'0 0.0
2017-Apr-20 06:30N 40°51' E 029°16'0 0.0
2017-Apr-20 05:58N 40°51' E 029°16'0 0.0
2017-Apr-20 05:29N 40°51' E 029°16'0 0.0
2017-Apr-20 05:00N 40°51' E 029°16'0 0.0
2017-Apr-20 04:29N 40°51' E 029°16'0 0.0
2017-Apr-20 04:00N 40°51' E 029°16'0 0.0
2017-Apr-20 03:30N 40°51' E 029°16'0 0.0
2017-Apr-20 03:00N 40°51' E 029°16'0 0.0
2017-Apr-20 02:29N 40°51' E 029°16'0 0.0
2017-Apr-20 01:59N 40°51' E 029°16'0 0.0
2017-Apr-20 01:30N 40°51' E 029°16'0 0.0
2017-Apr-20 01:00N 40°51' E 029°16'0 0.0
2017-Apr-20 00:30N 40°51' E 029°16'0 0.0
2017-Apr-20 00:00N 40°51' E 029°16'0 0.0
2017-Apr-19 23:30N 40°51' E 029°16'0 0.0
2017-Apr-19 22:59N 40°51' E 029°16'0 0.0
2017-Apr-19 22:30N 40°51' E 029°16'0 0.0
2017-Apr-19 21:59N 40°51' E 029°16'0 0.0
2017-Apr-19 21:30N 40°51' E 029°16'0 0.0
2017-Apr-19 21:00N 40°51' E 029°16'2 3.9
2017-Apr-19 20:31N 40°51' E 029°14'918.4
2017-Apr-19 20:00N 40°48' E 029°02'919.1
2017-Apr-19 19:31N 40°49' E 028°50'  

Dump ship's entire track history